Time;durP1;ratioP1;P1;durP2;ratioP2;P2;SDS_P1;SDS_P2;PMS_P1;PMS_P2;Temp;Humidity;BMP_temperature;BMP_pressure;BME280_temperature;BME280_humidity;BME280_pressure;Samples;Min_cycle;Max_cycle;Signal;HPM_P1;HPM_P2
2022/09/26 00:02:23;;;;;;;5.93;3.13;;;;;;;;;;5047572;28;20087;-59
2022/09/26 00:04:49;;;;;;;6.93;2.33;;;;;;;;;;5047712;28;20041;-59
2022/09/26 00:07:15;;;;;;;4.47;2.47;;;;;;;;;;5048082;28;20044;-59
2022/09/26 00:09:42;;;;;;;6.87;2.87;;;;;;;;;;5047924;28;20053;-59
2022/09/26 00:12:08;;;;;;;5.37;2.50;;;;;;;;;;5048140;28;20045;-59
2022/09/26 00:14:34;;;;;;;6.27;2.50;;;;;;;;;;5048257;28;20049;-59
2022/09/26 00:17:00;;;;;;;4.97;2.57;;;;;;;;;;5047927;28;20045;-59
2022/09/26 00:19:26;;;;;;;4.97;2.77;;;;;;;;;;5047886;28;20053;-59
2022/09/26 00:21:52;;;;;;;6.33;2.53;;;;;;;;;;5048100;28;20049;-59
2022/09/26 00:24:18;;;;;;;7.73;2.43;;;;;;;;;;5047318;28;20063;-59
2022/09/26 00:26:44;;;;;;;6.87;2.60;;;;;;;;;;5047691;28;20049;-59
2022/09/26 00:29:11;;;;;;;10.37;2.50;;;;;;;;;;5047374;28;20041;-59
2022/09/26 00:31:38;;;;;;;9.23;2.50;;;;;;;;;;5049681;28;20454;-59
2022/09/26 00:34:05;;;;;;;6.17;2.40;;;;;;;;;;5051293;28;20486;-59
2022/09/26 00:36:31;;;;;;;6.17;2.20;;;;;;;;;;5051516;28;20045;-59
2022/09/26 00:38:57;;;;;;;7.30;2.23;;;;;;;;;;5051292;28;20106;-59
2022/09/26 00:41:23;;;;;;;3.83;2.27;;;;;;;;;;5051270;28;20041;-59
2022/09/26 00:43:51;;;;;;;4.20;2.20;;;;;;;;;;5051436;28;20037;-59
2022/09/26 00:46:29;;;;;;;5.97;2.57;;;;;;;;;;5050992;28;20044;-59
2022/09/26 00:49:02;;;;;;;4.90;2.10;;;;;;;;;;5051674;28;20045;-59
2022/09/26 00:51:28;;;;;;;6.20;2.92;;;;;;;;;;5051171;28;20041;-59
2022/09/26 00:53:54;;;;;;;7.40;2.77;;;;;;;;;;5051143;28;20076;-59
2022/09/26 00:56:29;;;;;;;4.83;2.70;;;;;;;;;;5051090;28;20049;-59
2022/09/26 00:59:04;;;;;;;8.80;3.03;;;;;;;;;;5030481;28;20128;-60
2022/09/26 01:01:30;;;;;;;4.43;2.33;;;;;;;;;;5031383;28;20038;-60
2022/09/26 01:03:57;;;;;;;6.27;2.57;;;;;;;;;;5033598;28;20975;-60
2022/09/26 01:06:23;;;;;;;7.40;2.20;;;;;;;;;;5050881;28;20469;-60
2022/09/26 01:09:15;;;;;;;7.00;2.47;;;;;;;;;;5050349;28;20056;-59
2022/09/26 01:11:41;;;;;;;6.50;3.27;;;;;;;;;;5047821;28;20463;-60
2022/09/26 01:14:09;;;;;;;9.03;3.13;;;;;;;;;;5051066;28;20465;-60
2022/09/26 01:16:36;;;;;;;9.97;3.97;;;;;;;;;;5050023;28;20052;-60
2022/09/26 01:19:04;;;;;;;8.70;3.13;;;;;;;;;;5050534;28;20808;-60
2022/09/26 01:21:30;;;;;;;10.77;3.47;;;;;;;;;;5041398;28;20124;-60
2022/09/26 01:23:56;;;;;;;10.77;3.20;;;;;;;;;;5030723;28;20128;-60
2022/09/26 01:26:27;;;;;;;10.53;3.57;;;;;;;;;;5030507;28;20887;-60
2022/09/26 01:29:12;;;;;;;6.57;3.30;;;;;;;;;;5035267;28;20469;-60
2022/09/26 01:32:47;;;;;;;10.30;3.30;;;;;;;;;;5050236;28;20044;-60
2022/09/26 01:34:35;;;;;;;6.77;3.60;;;;;;;;;;5047834;28;20135;-60
2022/09/26 01:37:13;;;;;;;8.77;3.30;;;;;;;;;;5049985;28;20045;-60
2022/09/26 01:39:57;;;;;;;7.27;3.10;;;;;;;;;;5049915;28;20052;-60
2022/09/26 01:42:29;;;;;;;8.30;3.90;;;;;;;;;;5049346;28;20062;-60
2022/09/26 01:45:11;;;;;;;7.70;2.90;;;;;;;;;;5050698;28;20049;-60
2022/09/26 01:47:48;;;;;;;7.87;2.90;;;;;;;;;;5049694;28;20525;-60
2022/09/26 01:50:26;;;;;;;11.57;3.73;;;;;;;;;;5042870;28;20414;-60
2022/09/26 01:52:56;;;;;;;5.50;3.20;;;;;;;;;;5050430;28;20136;-59
2022/09/26 01:55:26;;;;;;;10.43;3.30;;;;;;;;;;5050630;28;20164;-60
2022/09/26 01:57:54;;;;;;;9.27;3.37;;;;;;;;;;5050362;28;20415;-60
2022/09/26 02:00:20;;;;;;;7.40;3.47;;;;;;;;;;5049984;28;20128;-60
2022/09/26 02:02:47;;;;;;;7.67;3.20;;;;;;;;;;5049431;28;20495;-60
2022/09/26 02:05:16;;;;;;;6.83;3.10;;;;;;;;;;5049822;28;20041;-60
2022/09/26 02:07:50;;;;;;;8.40;3.30;;;;;;;;;;5050100;28;20045;-60
2022/09/26 02:10:16;;;;;;;;;;;;;;;;;;5050318;28;21153;-60
2022/09/26 02:12:44;;;;;;;8.43;3.87;;;;;;;;;;5048295;28;20036;-60
2022/09/26 02:15:13;;;;;;;7.10;3.53;;;;;;;;;;5049316;28;20558;-60
2022/09/26 02:17:41;;;;;;;12.53;4.33;;;;;;;;;;5049173;28;20115;-60
2022/09/26 02:20:13;;;;;;;9.70;4.07;;;;;;;;;;5049656;28;20045;-60
2022/09/26 02:22:39;;;;;;;12.30;4.00;;;;;;;;;;5049500;28;20462;-60
2022/09/26 02:25:07;;;;;;;10.20;4.47;;;;;;;;;;5049854;28;20071;-60
2022/09/26 02:27:33;;;;;;;12.87;4.83;;;;;;;;;;5049277;28;20049;-60
2022/09/26 02:29:59;;;;;;;11.03;4.20;;;;;;;;;;5048916;28;20584;-60
2022/09/26 02:32:27;;;;;;;6.93;3.73;;;;;;;;;;5048336;28;20091;-59
2022/09/26 02:34:53;;;;;;;9.93;4.50;;;;;;;;;;5049373;28;20052;-60
2022/09/26 02:37:20;;;;;;;7.73;4.13;;;;;;;;;;5048410;28;20060;-60
2022/09/26 02:39:47;;;;;;;9.27;4.27;;;;;;;;;;5049274;28;20045;-60
2022/09/26 02:42:16;;;;;;;11.50;4.40;;;;;;;;;;5049338;28;20041;-60
2022/09/26 02:44:53;;;;;;;7.90;4.63;;;;;;;;;;5049230;28;20087;-60
2022/09/26 02:47:45;;;;;;;8.27;4.63;;;;;;;;;;5048125;28;20079;-60
2022/09/26 02:50:11;;;;;;;12.77;6.20;;;;;;;;;;5045847;28;20053;-60
2022/09/26 02:52:40;;;;;;;11.67;5.37;;;;;;;;;;5048944;28;20819;-60
2022/09/26 02:55:06;;;;;;;9.17;5.47;;;;;;;;;;5047315;28;20064;-60
2022/09/26 02:57:51;;;;;;;14.40;7.43;;;;;;;;;;5049196;28;20045;-60
2022/09/26 03:00:25;;;;;;;11.93;6.20;;;;;;;;;;5048577;28;20090;-60
2022/09/26 03:02:54;;;;;;;12.13;6.40;;;;;;;;;;5028889;28;20463;-60
2022/09/26 03:05:21;;;;;;;11.47;6.03;;;;;;;;;;5028390;28;20080;-60
2022/09/26 03:07:55;;;;;;;11.20;6.07;;;;;;;;;;5028277;28;20745;-60
2022/09/26 03:10:22;;;;;;;12.30;6.10;;;;;;;;;;5028974;28;20473;-60
2022/09/26 03:12:48;;;;;;;10.83;6.03;;;;;;;;;;5028641;28;20539;-61
2022/09/26 03:15:15;;;;;;;12.50;7.17;;;;;;;;;;5028171;28;20410;-61
2022/09/26 03:17:43;;;;;;;13.37;6.90;;;;;;;;;;5028330;28;20103;-61
2022/09/26 03:20:17;;;;;;;13.30;7.00;;;;;;;;;;5028280;28;20049;-61
2022/09/26 03:22:44;;;;;;;14.83;6.73;;;;;;;;;;5028385;28;20049;-62
2022/09/26 03:25:13;;;;;;;19.33;8.47;;;;;;;;;;5047230;28;20090;-62
2022/09/26 03:27:42;;;;;;;14.47;7.80;;;;;;;;;;5048367;28;20102;-63
2022/09/26 03:30:08;;;;;;;12.07;8.27;;;;;;;;;;5047678;28;20094;-63
2022/09/26 03:32:36;;;;;;;16.10;8.47;;;;;;;;;;5048426;28;20112;-63
2022/09/26 03:35:02;;;;;;;12.03;7.53;;;;;;;;;;5048429;28;20132;-63
2022/09/26 03:37:28;;;;;;;17.67;9.00;;;;;;;;;;5048201;28;20128;-62
2022/09/26 03:39:54;;;;;;;20.03;9.00;;;;;;;;;;5047916;28;20052;-63
2022/09/26 03:42:20;;;;;;;13.60;9.07;;;;;;;;;;5048673;28;20053;-63
2022/09/26 03:44:46;;;;;;;20.33;8.90;;;;;;;;;;5047919;28;20045;-62
2022/09/26 03:47:13;;;;;;;19.77;10.90;;;;;;;;;;5048571;28;20102;-63
2022/09/26 03:49:39;;;;;;;17.17;9.73;;;;;;;;;;5048105;28;20052;-63
2022/09/26 03:52:06;;;;;;;17.13;9.73;;;;;;;;;;5048322;28;20497;-62
2022/09/26 03:54:32;;;;;;;19.60;10.33;;;;;;;;;;5048334;28;21114;-62
2022/09/26 03:56:58;;;;;;;17.33;10.23;;;;;;;;;;5048452;28;20408;-63
2022/09/26 03:59:24;;;;;;;18.17;10.87;;;;;;;;;;5047086;28;20041;-63
2022/09/26 04:01:50;;;;;;;18.13;9.97;;;;;;;;;;5047930;28;20048;-63
2022/09/26 04:04:16;;;;;;;18.03;10.47;;;;;;;;;;5048322;28;20045;-63
2022/09/26 04:06:43;;;;;;;15.73;10.33;;;;;;;;;;5050141;28;20045;-63
2022/09/26 04:09:10;;;;;;;15.70;10.03;;;;;;;;;;5051743;28;20061;-63
2022/09/26 04:11:36;;;;;;;17.53;11.00;;;;;;;;;;5051393;28;20057;-63
2022/09/26 04:14:02;;;;;;;17.70;10.63;;;;;;;;;;5051827;28;20115;-63
2022/09/26 04:16:29;;;;;;;18.07;11.20;;;;;;;;;;5051925;28;20055;-63
2022/09/26 04:18:56;;;;;;;21.83;12.63;;;;;;;;;;5051536;28;20111;-63
2022/09/26 04:21:22;;;;;;;14.13;10.27;;;;;;;;;;5050242;28;20037;-63
2022/09/26 04:23:49;;;;;;;17.77;11.23;;;;;;;;;;5051150;28;20041;-62
2022/09/26 04:26:18;;;;;;;18.20;11.10;;;;;;;;;;5051646;28;20053;-63
2022/09/26 04:28:45;;;;;;;21.27;11.90;;;;;;;;;;5049920;28;20863;-63
2022/09/26 04:31:11;;;;;;;19.90;11.83;;;;;;;;;;5051355;28;20422;-63
2022/09/26 04:33:38;;;;;;;20.17;11.57;;;;;;;;;;5050828;28;20090;-63
2022/09/26 04:36:06;;;;;;;19.60;11.23;;;;;;;;;;5051201;28;20037;-62
2022/09/26 04:38:32;;;;;;;23.03;12.43;;;;;;;;;;5051226;28;20048;-63
2022/09/26 04:41:07;;;;;;;17.60;11.27;;;;;;;;;;5050858;28;20131;-63
2022/09/26 04:43:34;;;;;;;24.67;13.10;;;;;;;;;;5050967;28;20503;-62
2022/09/26 04:46:00;;;;;;;18.53;11.10;;;;;;;;;;5050403;28;20164;-63
2022/09/26 04:48:26;;;;;;;19.17;11.50;;;;;;;;;;5050922;28;20052;-63
2022/09/26 04:50:52;;;;;;;24.33;13.87;;;;;;;;;;5050807;28;20457;-63
2022/09/26 04:53:18;;;;;;;18.03;11.43;;;;;;;;;;5050300;28;20951;-63
2022/09/26 04:55:47;;;;;;;19.80;12.67;;;;;;;;;;5048791;28;20091;-63
2022/09/26 04:58:14;;;;;;;20.07;12.40;;;;;;;;;;5048516;28;20045;-63
2022/09/26 05:00:46;;;;;;;15.77;11.20;;;;;;;;;;5048227;28;20044;-63
2022/09/26 05:03:16;;;;;;;19.00;11.00;;;;;;;;;;5049107;28;20676;-63
2022/09/26 05:05:44;;;;;;;17.37;10.90;;;;;;;;;;5048889;28;20044;-63
2022/09/26 05:08:11;;;;;;;19.33;10.73;;;;;;;;;;5048709;28;20102;-63
2022/09/26 05:10:37;;;;;;;20.07;11.10;;;;;;;;;;5049863;28;20056;-63
2022/09/26 05:13:03;;;;;;;18.10;11.83;;;;;;;;;;5050687;28;20562;-63
2022/09/26 05:15:30;;;;;;;18.83;12.23;;;;;;;;;;5050018;28;20171;-63
2022/09/26 05:17:56;;;;;;;17.77;11.13;;;;;;;;;;5049299;28;20045;-63
2022/09/26 05:20:23;;;;;;;23.60;12.10;;;;;;;;;;5050531;28;20052;-63
2022/09/26 05:22:49;;;;;;;18.20;10.43;;;;;;;;;;5049978;28;20060;-63
2022/09/26 05:28:00;;;;;;;16.90;9.83;;;;;;;;;;5033517;28;20045;-63
2022/09/26 05:30:30;;;;;;;15.03;9.53;;;;;;;;;;5049804;28;20127;-63
2022/09/26 05:32:56;;;;;;;15.40;10.50;;;;;;;;;;5049630;28;20049;-63
2022/09/26 05:35:23;;;;;;;13.73;8.93;;;;;;;;;;5050265;28;20053;-63
2022/09/26 05:37:49;;;;;;;19.70;10.87;;;;;;;;;;5049324;28;20490;-63
2022/09/26 05:43:02;;;;;;;18.47;10.57;;;;;;;;;;5050207;28;20076;-63
2022/09/26 05:45:30;;;;;;;18.73;10.07;;;;;;;;;;5050004;28;20114;-63
2022/09/26 05:47:56;;;;;;;21.03;10.87;;;;;;;;;;5049492;28;20060;-63
2022/09/26 05:50:23;;;;;;;15.60;10.77;;;;;;;;;;5049020;28;20043;-63
2022/09/26 05:52:49;;;;;;;13.67;8.70;;;;;;;;;;5049654;28;20052;-63
2022/09/26 05:55:16;;;;;;;17.17;9.27;;;;;;;;;;5041466;28;20042;-63
2022/09/26 05:57:51;;;;;;;13.97;9.33;;;;;;;;;;5042197;28;20048;-63
2022/09/26 06:00:17;;;;;;;14.33;8.27;;;;;;;;;;5049374;28;20134;-63
2022/09/26 06:02:43;;;;;;;16.07;9.70;;;;;;;;;;5049261;28;20053;-63
2022/09/26 06:05:10;;;;;;;14.87;9.60;;;;;;;;;;5049393;28;20055;-63
2022/09/26 06:07:36;;;;;;;16.87;9.50;;;;;;;;;;5049333;28;20415;-63
2022/09/26 06:10:05;;;;;;;16.27;9.50;;;;;;;;;;5047830;28;20080;-63
2022/09/26 06:12:31;;;;;;;19.83;9.47;;;;;;;;;;5046278;28;20159;-63
2022/09/26 06:14:57;;;;;;;14.57;9.47;;;;;;;;;;5037669;28;20178;-63
2022/09/26 06:17:24;;;;;;;14.87;9.63;;;;;;;;;;5042138;28;20053;-63
2022/09/26 06:19:50;;;;;;;16.27;9.83;;;;;;;;;;5040759;28;20040;-63
2022/09/26 06:22:16;;;;;;;20.30;8.80;;;;;;;;;;5039150;28;20515;-63
2022/09/26 06:24:42;;;;;;;13.97;8.67;;;;;;;;;;5034960;28;20519;-63
2022/09/26 06:27:08;;;;;;;12.57;8.07;;;;;;;;;;5039627;28;20049;-63
2022/09/26 06:29:34;;;;;;;14.90;7.53;;;;;;;;;;5033228;28;20037;-63
2022/09/26 06:32:00;;;;;;;14.70;7.27;;;;;;;;;;5037610;28;20041;-63
2022/09/26 06:34:26;;;;;;;13.37;6.30;;;;;;;;;;5039030;28;20046;-63
2022/09/26 06:36:52;;;;;;;14.03;7.33;;;;;;;;;;5036381;28;20057;-63
2022/09/26 06:39:18;;;;;;;11.17;6.57;;;;;;;;;;5037165;28;20047;-63
2022/09/26 06:41:44;;;;;;;10.10;6.17;;;;;;;;;;5035299;28;20045;-63
2022/09/26 06:44:10;;;;;;;15.57;6.83;;;;;;;;;;5041213;28;20418;-63
2022/09/26 06:46:36;;;;;;;11.00;5.57;;;;;;;;;;5046733;28;20143;-63
2022/09/26 06:49:02;;;;;;;8.90;5.80;;;;;;;;;;5044907;28;20147;-63
2022/09/26 06:51:30;;;;;;;12.13;5.47;;;;;;;;;;5048169;28;20075;-63
2022/09/26 06:53:56;;;;;;;11.87;5.67;;;;;;;;;;5048286;28;20041;-63
2022/09/26 06:56:22;;;;;;;8.80;5.10;;;;;;;;;;5048025;28;20621;-63
2022/09/26 06:58:48;;;;;;;8.20;5.60;;;;;;;;;;5048471;28;20135;-63
2022/09/26 07:01:14;;;;;;;8.63;4.97;;;;;;;;;;5046587;28;20048;-63
2022/09/26 07:03:40;;;;;;;8.37;4.87;;;;;;;;;;5047566;28;20037;-63
2022/09/26 07:06:07;;;;;;;10.50;5.13;;;;;;;;;;5048152;28;20049;-63
2022/09/26 07:08:33;;;;;;;7.73;5.17;;;;;;;;;;5047535;28;20057;-63
2022/09/26 07:11:00;;;;;;;10.77;5.67;;;;;;;;;;5047793;28;20049;-63
2022/09/26 07:13:28;;;;;;;9.33;5.57;;;;;;;;;;5047786;28;20045;-63
2022/09/26 07:15:56;;;;;;;11.10;5.80;;;;;;;;;;5046631;28;20053;-63
2022/09/26 07:18:22;;;;;;;11.53;5.63;;;;;;;;;;5047568;28;20518;-63
2022/09/26 07:20:48;;;;;;;12.13;5.77;;;;;;;;;;5048102;28;20067;-63
2022/09/26 07:23:15;;;;;;;9.20;5.10;;;;;;;;;;5047269;28;20574;-63
2022/09/26 07:25:44;;;;;;;8.83;5.27;;;;;;;;;;5047595;28;20239;-63
2022/09/26 07:28:10;;;;;;;11.90;5.70;;;;;;;;;;5048001;28;20045;-63
2022/09/26 07:30:36;;;;;;;8.97;5.47;;;;;;;;;;5047885;28;20049;-63
2022/09/26 07:33:03;;;;;;;15.13;5.70;;;;;;;;;;5047035;28;20056;-64
2022/09/26 07:35:30;;;;;;;10.03;5.50;;;;;;;;;;5045064;28;20033;-63
2022/09/26 07:37:57;;;;;;;16.67;5.40;;;;;;;;;;5047584;28;20041;-63
2022/09/26 07:40:24;;;;;;;14.20;6.93;;;;;;;;;;5047063;28;20052;-63
2022/09/26 07:42:51;;;;;;;12.23;5.93;;;;;;;;;;5054726;28;20131;-63
2022/09/26 07:50:09;;;;;;;10.70;6.13;;;;;;;;;;5054077;28;20053;-63
2022/09/26 07:50:50;;;;;;;7.97;5.53;;;;;;;;;;5054241;28;20495;-63
2022/09/26 07:53:18;;;;;;;11.63;5.43;;;;;;;;;;5053792;28;20045;-63
2022/09/26 07:56:04;;;;;;;6.90;4.90;;;;;;;;;;5053074;28;20423;-63
2022/09/26 07:58:30;;;;;;;11.03;6.97;;;;;;;;;;5044712;28;20045;-63
2022/09/26 08:00:56;;;;;;;10.30;5.43;;;;;;;;;;5042882;28;20056;-63
2022/09/26 08:03:27;;;;;;;14.50;4.63;;;;;;;;;;5047564;28;20064;-63
2022/09/26 08:05:55;;;;;;;7.17;4.20;;;;;;;;;;5051992;28;20130;-64
2022/09/26 08:08:21;;;;;;;8.97;4.80;;;;;;;;;;5048004;28;20053;-63
2022/09/26 08:10:47;;;;;;;9.57;5.20;;;;;;;;;;5053596;28;20487;-63
2022/09/26 08:13:13;;;;;;;16.23;5.30;;;;;;;;;;5052661;28;20049;-63
2022/09/26 08:15:39;;;;;;;6.53;4.63;;;;;;;;;;5050149;28;20087;-63
2022/09/26 08:18:05;;;;;;;7.87;3.90;;;;;;;;;;5052859;28;20537;-63
2022/09/26 08:20:32;;;;;;;6.57;4.63;;;;;;;;;;5037004;28;20048;-63
2022/09/26 08:22:58;;;;;;;7.47;4.70;;;;;;;;;;5053015;28;20621;-63
2022/09/26 08:25:24;;;;;;;5.73;3.70;;;;;;;;;;5053647;28;20045;-63
2022/09/26 08:27:52;;;;;;;13.10;3.97;;;;;;;;;;5052291;28;20124;-63
2022/09/26 08:30:18;;;;;;;9.30;5.30;;;;;;;;;;5047485;28;20041;-63
2022/09/26 08:32:51;;;;;;;8.40;4.10;;;;;;;;;;5033074;28;20045;-62
2022/09/26 08:35:17;;;;;;;9.87;3.53;;;;;;;;;;5032313;28;20459;-63
2022/09/26 08:37:43;;;;;;;9.30;3.60;;;;;;;;;;5051959;28;20182;-62
2022/09/26 08:40:10;;;;;;;7.20;3.80;;;;;;;;;;5053945;28;20127;-63
2022/09/26 08:42:54;;;;;;;7.73;3.50;;;;;;;;;;5052918;28;20044;-63
2022/09/26 08:48:26;;;;;;;9.37;3.43;;;;;;;;;;5054162;28;20044;-63
2022/09/26 08:51:10;;;;;;;6.67;3.57;;;;;;;;;;5053377;28;20049;-62
2022/09/26 08:53:42;;;;;;;9.30;3.27;;;;;;;;;;5051073;28;20127;-62
2022/09/26 08:56:16;;;;;;;11.67;4.30;;;;;;;;;;5050831;28;20145;-62
2022/09/26 08:58:44;;;;;;;9.53;3.30;;;;;;;;;;5050393;28;20045;-62
2022/09/26 09:01:12;;;;;;;7.70;3.83;;;;;;;;;;5050085;28;20048;-63
2022/09/26 09:03:49;;;;;;;9.20;3.70;;;;;;;;;;5050056;28;20041;-63
2022/09/26 09:06:15;;;;;;;8.87;3.93;;;;;;;;;;5049043;28;20413;-63
2022/09/26 09:08:47;;;;;;;11.37;4.97;;;;;;;;;;5050253;28;20053;-63
2022/09/26 09:11:12;;;;;;;8.10;4.00;;;;;;;;;;5049880;28;20420;-63
2022/09/26 09:13:57;;;;;;;16.40;5.20;;;;;;;;;;5050409;28;20052;-63
2022/09/26 09:16:29;;;;;;;9.73;4.80;;;;;;;;;;5050259;28;20139;-63
2022/09/26 09:19:07;;;;;;;13.97;5.77;;;;;;;;;;5050326;28;20053;-63
2022/09/26 09:21:44;;;;;;;8.10;4.20;;;;;;;;;;5049736;28;20048;-63
2022/09/26 09:24:29;;;;;;;13.67;5.63;;;;;;;;;;5050023;28;20065;-63
2022/09/26 09:27:03;;;;;;;11.47;4.83;;;;;;;;;;5050054;28;20045;-63
2022/09/26 09:29:29;;;;;;;11.53;4.83;;;;;;;;;;5049904;28;20136;-63
2022/09/26 09:31:56;;;;;;;12.50;5.10;;;;;;;;;;5049296;28;20151;-63
2022/09/26 09:34:27;;;;;;;12.30;4.50;;;;;;;;;;5049110;28;20087;-63
2022/09/26 09:37:03;;;;;;;14.33;5.23;;;;;;;;;;5049665;28;20132;-63
2022/09/26 09:39:32;;;;;;;9.43;4.83;;;;;;;;;;5049715;28;20037;-63
2022/09/26 09:42:02;;;;;;;11.20;4.60;;;;;;;;;;5049429;28;20045;-63
2022/09/26 09:44:46;;;;;;;9.10;5.00;;;;;;;;;;5049235;28;20522;-63
2022/09/26 09:47:14;;;;;;;8.37;4.70;;;;;;;;;;5048595;28;20079;-63
2022/09/26 09:49:41;;;;;;;9.30;5.07;;;;;;;;;;5049537;28;20107;-63
2022/09/26 09:52:20;;;;;;;13.97;4.83;;;;;;;;;;5049188;28;20049;-63
2022/09/26 09:54:55;;;;;;;9.43;4.87;;;;;;;;;;5049252;28;20503;-63
2022/09/26 09:57:21;;;;;;;11.23;5.27;;;;;;;;;;5049190;28;20054;-63
2022/09/26 09:59:53;;;;;;;8.17;4.67;;;;;;;;;;5048854;28;20075;-63
2022/09/26 10:02:52;;;;;;;8.07;4.40;;;;;;;;;;5040629;28;20072;-62
2022/09/26 10:05:32;;;;;;;9.53;4.67;;;;;;;;;;5009832;28;20048;-63
2022/09/26 10:07:58;;;;;;;9.23;4.40;;;;;;;;;;5036658;28;20513;-62
2022/09/26 10:10:27;;;;;;;15.20;6.10;;;;;;;;;;5041480;28;20052;-63
2022/09/26 10:12:55;;;;;;;10.60;4.50;;;;;;;;;;5039247;28;20425;-63
2022/09/26 10:15:25;;;;;;;14.43;4.50;;;;;;;;;;5037065;28;20121;-62
2022/09/26 10:18:07;;;;;;;8.40;4.23;;;;;;;;;;5037154;28;20119;-63
2022/09/26 10:20:39;;;;;;;11.80;4.70;;;;;;;;;;5038647;28;20402;-63
2022/09/26 10:23:19;;;;;;;12.57;4.80;;;;;;;;;;5040926;28;20522;-63
2022/09/26 10:25:47;;;;;;;7.10;4.70;;;;;;;;;;5040249;28;20191;-63
2022/09/26 10:28:21;;;;;;;10.90;5.70;;;;;;;;;;5037894;28;20075;-63
2022/09/26 10:30:48;;;;;;;9.87;5.37;;;;;;;;;;5039904;28;20175;-63
2022/09/26 10:33:23;;;;;;;11.67;5.13;;;;;;;;;;5043089;28;20464;-63
2022/09/26 10:35:51;;;;;;;15.87;5.80;;;;;;;;;;5038823;28;20055;-63
2022/09/26 10:38:28;;;;;;;12.23;6.43;;;;;;;;;;5041887;28;20049;-64
2022/09/26 10:40:56;;;;;;;12.60;5.83;;;;;;;;;;5040813;28;20049;-63
2022/09/26 10:43:30;;;;;;;21.27;6.53;;;;;;;;;;5035875;28;20048;-63
2022/09/26 10:46:09;;;;;;;17.57;7.40;;;;;;;;;;5035103;28;20045;-63
2022/09/26 10:48:47;;;;;;;12.47;6.07;;;;;;;;;;5037690;28;20075;-63
2022/09/26 10:51:23;;;;;;;14.63;6.87;;;;;;;;;;5048272;28;20049;-63
2022/09/26 10:53:53;;;;;;;15.37;8.03;;;;;;;;;;5049263;28;20060;-63
2022/09/26 10:56:25;;;;;;;12.83;6.97;;;;;;;;;;5048869;28;20052;-63
2022/09/26 10:58:56;;;;;;;19.27;7.27;;;;;;;;;;5049574;28;20045;-63
2022/09/26 11:01:25;;;;;;;13.23;6.40;;;;;;;;;;5048843;28;20086;-63
2022/09/26 11:03:51;;;;;;;10.90;6.60;;;;;;;;;;5049672;28;20055;-63
2022/09/26 11:06:21;;;;;;;13.33;6.87;;;;;;;;;;5049514;28;20044;-64
2022/09/26 11:08:50;;;;;;;12.83;6.70;;;;;;;;;;5048567;28;20457;-63
2022/09/26 11:11:20;;;;;;;13.03;6.33;;;;;;;;;;5048340;28;20494;-64
2022/09/26 11:13:48;;;;;;;14.60;6.53;;;;;;;;;;5048962;28;20081;-64
2022/09/26 11:16:17;;;;;;;12.07;7.40;;;;;;;;;;5048435;28;20446;-64
2022/09/26 11:18:50;;;;;;;14.57;8.10;;;;;;;;;;5049066;28;20128;-64
2022/09/26 11:21:26;;;;;;;14.93;7.77;;;;;;;;;;5047762;28;20045;-64
2022/09/26 11:24:01;;;;;;;26.87;8.30;;;;;;;;;;5048667;28;20045;-64
2022/09/26 11:26:28;;;;;;;15.73;9.50;;;;;;;;;;5047914;28;20470;-64
2022/09/26 11:29:17;;;;;;;18.83;9.90;;;;;;;;;;5048713;28;20495;-64
2022/09/26 11:31:44;;;;;;;24.10;11.17;;;;;;;;;;5047842;28;20059;-63
2022/09/26 11:34:15;;;;;;;15.70;10.10;;;;;;;;;;5049066;28;20087;-63
2022/09/26 11:37:01;;;;;;;18.37;10.07;;;;;;;;;;5048615;28;20063;-63
2022/09/26 11:39:53;;;;;;;14.67;9.93;;;;;;;;;;5048276;28;20438;-63
2022/09/26 11:42:19;;;;;;;12.23;8.90;;;;;;;;;;5017713;28;20045;-63
2022/09/26 11:44:53;;;;;;;14.47;8.90;;;;;;;;;;5047769;28;20041;-63
2022/09/26 11:47:38;;;;;;;14.23;9.73;;;;;;;;;;5048308;28;20505;-63
2022/09/26 11:50:22;;;;;;;13.47;8.03;;;;;;;;;;5048616;28;20064;-63
2022/09/26 11:52:50;;;;;;;21.08;11.18;;;;;;;;;;5047657;28;20049;-63
2022/09/26 11:55:23;;;;;;;14.57;8.70;;;;;;;;;;5048154;28;20052;-63
2022/09/26 11:58:01;;;;;;;16.47;8.97;;;;;;;;;;5048110;28;20052;-63
2022/09/26 12:00:50;;;;;;;15.50;7.87;;;;;;;;;;5048058;28;20056;-63
2022/09/26 12:03:26;;;;;;;9.90;6.47;;;;;;;;;;5010226;28;20052;-63
2022/09/26 12:06:03;;;;;;;13.23;7.50;;;;;;;;;;5047565;28;20096;-63
2022/09/26 12:08:48;;;;;;;15.03;7.17;;;;;;;;;;5047987;28;20500;-63
2022/09/26 12:11:18;;;;;;;16.23;7.60;;;;;;;;;;5047989;28;20057;-63
2022/09/26 12:14:01;;;;;;;10.10;6.47;;;;;;;;;;5048158;28;20396;-63
2022/09/26 12:16:30;;;;;;;10.57;6.47;;;;;;;;;;5048130;28;20052;-63
2022/09/26 12:19:04;;;;;;;7.63;5.67;;;;;;;;;;5048019;28;20573;-63
2022/09/26 12:22:27;;;;;;;10.73;7.30;;;;;;;;;;5048176;28;20059;-63
2022/09/26 12:24:34;;;;;;;8.90;5.70;;;;;;;;;;5048090;28;20447;-63
2022/09/26 12:27:04;;;;;;;10.47;7.53;;;;;;;;;;5048314;28;20564;-63
2022/09/26 12:29:53;;;;;;;9.37;6.90;;;;;;;;;;5051675;28;20048;-63
2022/09/26 12:32:46;;;;;;;8.23;5.53;;;;;;;;;;5014586;28;20418;-63
2022/09/26 12:35:14;;;;;;;10.03;6.30;;;;;;;;;;5021114;28;20049;-63
2022/09/26 12:37:40;;;;;;;8.53;5.10;;;;;;;;;;5051737;28;20095;-63
2022/09/26 12:40:10;;;;;;;8.30;5.63;;;;;;;;;;5051013;28;20044;-63
2022/09/26 12:42:39;;;;;;;6.00;4.67;;;;;;;;;;5050398;28;20395;-63
2022/09/26 12:45:05;;;;;;;8.10;5.73;;;;;;;;;;5050253;28;20376;-63
2022/09/26 12:47:31;;;;;;;7.83;4.93;;;;;;;;;;5051147;28;20533;-64
2022/09/26 12:50:10;;;;;;;8.63;5.33;;;;;;;;;;5051490;28;20060;-64
2022/09/26 12:52:54;;;;;;;8.47;5.13;;;;;;;;;;5051125;28;20101;-63
2022/09/26 12:55:31;;;;;;;7.97;5.40;;;;;;;;;;5051281;28;20106;-63
2022/09/26 12:58:06;;;;;;;8.87;5.20;;;;;;;;;;5051371;28;20364;-63
2022/09/26 13:00:38;;;;;;;7.30;4.53;;;;;;;;;;5051111;28;20122;-64
2022/09/26 13:03:10;;;;;;;5.73;4.73;;;;;;;;;;5051316;28;20072;-64
2022/09/26 13:05:55;;;;;;;8.10;4.97;;;;;;;;;;5050611;28;20586;-64
2022/09/26 13:08:39;;;;;;;8.00;5.20;;;;;;;;;;5050748;28;20052;-63
2022/09/26 13:11:21;;;;;;;10.00;6.20;;;;;;;;;;5050373;28;20049;-63
2022/09/26 13:14:11;;;;;;;6.77;4.47;;;;;;;;;;5050283;28;20520;-64
2022/09/26 13:16:46;;;;;;;6.93;3.90;;;;;;;;;;5049506;28;20053;-63
2022/09/26 13:19:36;;;;;;;7.73;5.57;;;;;;;;;;5050075;28;20060;-63
2022/09/26 13:22:04;;;;;;;6.33;5.10;;;;;;;;;;5050228;28;20048;-63
2022/09/26 13:24:39;;;;;;;9.70;5.60;;;;;;;;;;5050920;28;20048;-63
2022/09/26 13:27:16;;;;;;;6.80;5.00;;;;;;;;;;5049900;28;20088;-63
2022/09/26 13:29:43;;;;;;;6.57;4.60;;;;;;;;;;5049651;28;20127;-63
2022/09/26 13:32:34;;;;;;;7.37;5.50;;;;;;;;;;5048967;28;20144;-63
2022/09/26 13:35:04;;;;;;;5.63;4.20;;;;;;;;;;5048949;28;20511;-63
2022/09/26 13:37:41;;;;;;;5.67;4.10;;;;;;;;;;5050226;28;20059;-62
2022/09/26 13:40:22;;;;;;;5.13;3.90;;;;;;;;;;5049517;28;20496;-63
2022/09/26 13:43:10;;;;;;;6.20;3.90;;;;;;;;;;5049972;28;20040;-63
2022/09/26 13:45:45;;;;;;;4.57;3.63;;;;;;;;;;5049712;28;20048;-63
2022/09/26 13:48:31;;;;;;;6.00;4.10;;;;;;;;;;5049982;28;20055;-63
2022/09/26 13:51:08;;;;;;;4.43;3.60;;;;;;;;;;5048860;28;20419;-63
2022/09/26 13:53:37;;;;;;;4.00;3.20;;;;;;;;;;5029803;28;20060;-62
2022/09/26 13:56:22;;;;;;;5.90;4.30;;;;;;;;;;5042085;28;20538;-63
2022/09/26 13:59:02;;;;;;;5.17;4.00;;;;;;;;;;5050048;28;20503;-63
2022/09/26 14:01:28;;;;;;;5.17;3.40;;;;;;;;;;5048931;28;20483;-63
2022/09/26 14:04:12;;;;;;;6.97;4.07;;;;;;;;;;5049247;28;20586;-63
2022/09/26 14:06:58;;;;;;;4.63;3.27;;;;;;;;;;5046642;28;20041;-63
2022/09/26 14:09:38;;;;;;;6.83;3.43;;;;;;;;;;5044877;28;20049;-63
2022/09/26 14:12:19;;;;;;;5.57;3.47;;;;;;;;;;5033153;28;20115;-63
2022/09/26 14:14:48;;;;;;;4.60;3.23;;;;;;;;;;5046291;28;20080;-62
2022/09/26 14:17:32;;;;;;;3.60;2.73;;;;;;;;;;5039290;28;20460;-63
2022/09/26 14:20:00;;;;;;;4.57;2.83;;;;;;;;;;5029593;28;20083;-63
2022/09/26 14:22:36;;;;;;;3.87;2.97;;;;;;;;;;5034864;28;20530;-62
2022/09/26 14:25:02;;;;;;;4.50;3.07;;;;;;;;;;5046364;28;20052;-62
2022/09/26 14:27:38;;;;;;;4.30;3.30;;;;;;;;;;5030667;28;20515;-63
2022/09/26 14:30:23;;;;;;;5.63;3.73;;;;;;;;;;5029472;28;20050;-63
2022/09/26 14:32:50;;;;;;;6.17;4.00;;;;;;;;;;5028983;28;20045;-63
2022/09/26 14:35:33;;;;;;;5.30;3.97;;;;;;;;;;5046053;28;20174;-63
2022/09/26 14:38:12;;;;;;;6.00;4.07;;;;;;;;;;5047653;28;20044;-63
2022/09/26 14:40:39;;;;;;;6.50;4.77;;;;;;;;;;5033000;28;20037;-63
2022/09/26 14:43:13;;;;;;;5.53;4.37;;;;;;;;;;5049426;28;20112;-63
2022/09/26 14:45:39;;;;;;;7.37;4.73;;;;;;;;;;5048165;28;20495;-63
2022/09/26 14:48:11;;;;;;;6.03;5.00;;;;;;;;;;5029029;28;20057;-64
2022/09/26 14:50:49;;;;;;;6.40;4.50;;;;;;;;;;5028795;28;20042;-63
2022/09/26 14:53:19;;;;;;;6.00;4.67;;;;;;;;;;5028890;28;20085;-63
2022/09/26 14:56:02;;;;;;;6.37;4.77;;;;;;;;;;5033384;28;20053;-63
2022/09/26 14:58:28;;;;;;;7.57;4.80;;;;;;;;;;5046678;28;20140;-63
2022/09/26 15:00:54;;;;;;;6.43;5.33;;;;;;;;;;5037951;28;20129;-64
2022/09/26 15:03:20;;;;;;;6.30;5.00;;;;;;;;;;5029508;28;20049;-63
2022/09/26 15:05:48;;;;;;;7.20;5.53;;;;;;;;;;5028450;28;20041;-63
2022/09/26 15:08:27;;;;;;;7.83;5.50;;;;;;;;;;5047147;28;20087;-63